Time;durP1;ratioP1;P1;durP2;ratioP2;P2;SDS_P1;SDS_P2;PMS_P1;PMS_P2;Temp;Humidity;BMP_temperature;BMP_pressure;BME280_temperature;BME280_humidity;BME280_pressure;Samples;Min_cycle;Max_cycle;Signal;HPM_P1;HPM_P2
2022/07/29 00:00:05;;;;;;;5.13;1.42;;;;;;;;;;6130584;23;20018;-86
2022/07/29 00:02:35;;;;;;;3.97;1.35;;;;;;;;;;6131370;23;20046;-86
2022/07/29 00:05:03;;;;;;;2.15;1.40;;;;;;;;;;6130393;23;20522;-86
2022/07/29 00:07:33;;;;;;;3.60;1.50;;;;;;;;;;6131527;23;20712;-86
2022/07/29 00:10:07;;;;;;;3.67;1.70;;;;;;;;;;6131150;23;20077;-86
2022/07/29 00:12:40;;;;;;;3.17;1.50;;;;;;;;;;6131303;23;20047;-86
2022/07/29 00:15:15;;;;;;;3.10;1.60;;;;;;;;;;6130780;23;20022;-86
2022/07/29 00:17:49;;;;;;;3.60;1.30;;;;;;;;;;6130785;23;20703;-86
2022/07/29 00:20:21;;;;;;;2.78;1.48;;;;;;;;;;6130612;23;20014;-86
2022/07/29 00:22:51;;;;;;;5.67;1.50;;;;;;;;;;6130268;23;20028;-86
2022/07/29 00:25:20;;;;;;;4.40;1.45;;;;;;;;;;6155615;23;20022;-86
2022/07/29 00:27:59;;;;;;;2.97;1.55;;;;;;;;;;6133295;23;20093;-86
2022/07/29 00:30:30;;;;;;;6.40;1.50;;;;;;;;;;6130179;23;20085;-86
2022/07/29 00:33:02;;;;;;;5.18;1.90;;;;;;;;;;6155983;23;20653;-86
2022/07/29 00:35:44;;;;;;;4.88;1.30;;;;;;;;;;6130282;23;20097;-86
2022/07/29 00:38:13;;;;;;;3.33;1.45;;;;;;;;;;6129914;23;20033;-86
2022/07/29 00:40:43;;;;;;;7.75;1.70;;;;;;;;;;6156027;23;20158;-86
2022/07/29 00:43:19;;;;;;;4.00;1.42;;;;;;;;;;6130616;23;20049;-86
2022/07/29 00:45:46;;;;;;;;;;;;;;;;;;6130655;23;20117;-86
2022/07/29 00:48:35;;;;;;;4.60;1.60;;;;;;;;;;6129113;23;45919;-86
2022/07/29 00:51:07;;;;;;;4.30;1.38;;;;;;;;;;6129786;23;20018;-86
2022/07/29 00:53:36;;;;;;;2.22;1.30;;;;;;;;;;6156240;23;20022;-86
2022/07/29 00:56:08;;;;;;;3.03;1.40;;;;;;;;;;6130913;23;20026;-86
2022/07/29 00:58:51;;;;;;;2.60;1.52;;;;;;;;;;6133715;23;20077;-86
2022/07/29 01:01:28;;;;;;;7.68;1.48;;;;;;;;;;6156047;23;20018;-86
2022/07/29 01:03:58;;;;;;;3.50;1.40;;;;;;;;;;6130269;23;20018;-86
2022/07/29 01:06:27;;;;;;;2.92;1.42;;;;;;;;;;6131184;23;20078;-86
2022/07/29 01:08:58;;;;;;;3.28;1.42;;;;;;;;;;6130645;23;20030;-86
2022/07/29 01:11:29;;;;;;;3.95;1.40;;;;;;;;;;6131630;23;20022;-86
2022/07/29 01:14:01;;;;;;;3.58;1.40;;;;;;;;;;6132493;23;20073;-86
2022/07/29 01:16:47;;;;;;;4.35;1.35;;;;;;;;;;6131374;23;20022;-86
2022/07/29 01:19:19;;;;;;;7.15;1.48;;;;;;;;;;6131939;23;20026;-86
2022/07/29 01:22:00;;;;;;;5.63;1.65;;;;;;;;;;6132049;23;20085;-86
2022/07/29 01:24:34;;;;;;;3.78;1.30;;;;;;;;;;6131261;23;20033;-86
2022/07/29 01:27:14;;;;;;;6.07;1.38;;;;;;;;;;6132653;23;20363;-86
2022/07/29 01:29:50;;;;;;;3.67;1.42;;;;;;;;;;6157601;23;20026;-86
2022/07/29 01:32:19;;;;;;;4.47;1.40;;;;;;;;;;6131470;23;20026;-86
2022/07/29 01:35:13;;;;;;;4.95;1.45;;;;;;;;;;6132919;23;20464;-86
2022/07/29 01:37:53;;;;;;;6.63;1.50;;;;;;;;;;6131400;23;20014;-86
2022/07/29 01:40:33;;;;;;;3.20;1.45;;;;;;;;;;6131644;23;20037;-86
2022/07/29 01:43:06;;;;;;;4.35;1.65;;;;;;;;;;6131357;23;20033;-86
2022/07/29 01:45:39;;;;;;;3.60;1.50;;;;;;;;;;6132071;23;20018;-86
2022/07/29 01:48:24;;;;;;;3.63;1.50;;;;;;;;;;6131688;23;20422;-86
2022/07/29 01:51:00;;;;;;;5.03;1.50;;;;;;;;;;6131999;23;20025;-86
2022/07/29 01:53:34;;;;;;;5.00;1.38;;;;;;;;;;6131597;23;20336;-86
2022/07/29 01:56:04;;;;;;;3.08;1.38;;;;;;;;;;6132097;23;20029;-86
2022/07/29 01:58:40;;;;;;;8.15;1.50;;;;;;;;;;6133055;23;20856;-86
2022/07/29 02:01:18;;;;;;;8.40;1.50;;;;;;;;;;6132645;23;20069;-86
2022/07/29 02:03:50;;;;;;;7.38;1.95;;;;;;;;;;6132657;23;20037;-85
2022/07/29 02:06:21;;;;;;;4.65;1.63;;;;;;;;;;6131671;23;20123;-86
2022/07/29 02:08:53;;;;;;;3.17;1.75;;;;;;;;;;6131266;23;20032;-85
2022/07/29 02:11:26;;;;;;;8.02;1.65;;;;;;;;;;6132679;23;20010;-86
2022/07/29 02:13:57;;;;;;;8.35;1.80;;;;;;;;;;6131684;23;20014;-86
2022/07/29 02:16:29;;;;;;;3.58;1.50;;;;;;;;;;6131867;23;20030;-86
2022/07/29 02:19:08;;;;;;;3.55;1.73;;;;;;;;;;6133503;23;20033;-86
2022/07/29 02:21:41;;;;;;;4.88;1.60;;;;;;;;;;6158014;23;20504;-86
2022/07/29 02:24:12;;;;;;;4.35;1.70;;;;;;;;;;6132949;23;20026;-86
2022/07/29 02:26:45;;;;;;;7.78;1.90;;;;;;;;;;6131971;23;20018;-86
2022/07/29 02:29:15;;;;;;;6.13;1.80;;;;;;;;;;6132193;23;20022;-86
2022/07/29 02:31:46;;;;;;;3.47;1.30;;;;;;;;;;6158400;23;20029;-86
2022/07/29 02:34:16;;;;;;;4.38;1.77;;;;;;;;;;6156996;23;20464;-86
2022/07/29 02:36:49;;;;;;;4.70;1.70;;;;;;;;;;6132229;23;20032;-85
2022/07/29 02:39:25;;;;;;;4.90;1.77;;;;;;;;;;6132236;23;20018;-86
2022/07/29 02:42:01;;;;;;;4.28;1.55;;;;;;;;;;6132187;23;20461;-86
2022/07/29 02:44:34;;;;;;;6.18;1.83;;;;;;;;;;6157119;23;20022;-86
2022/07/29 02:47:07;;;;;;;3.15;1.60;;;;;;;;;;6157287;23;20018;-86
2022/07/29 02:49:52;;;;;;;2.88;1.90;;;;;;;;;;6157543;23;20054;-86
2022/07/29 02:52:34;;;;;;;3.63;1.73;;;;;;;;;;6131186;23;20022;-86
2022/07/29 02:55:22;;;;;;;6.32;1.90;;;;;;;;;;6132349;23;20463;-86
2022/07/29 02:58:01;;;;;;;4.72;1.90;;;;;;;;;;6131241;23;20029;-86
2022/07/29 03:00:29;;;;;;;10.63;2.03;;;;;;;;;;6131407;23;20049;-86
2022/07/29 03:03:00;;;;;;;6.60;2.00;;;;;;;;;;6130212;23;20046;-86
2022/07/29 03:05:29;;;;;;;4.43;1.65;;;;;;;;;;6131866;23;20136;-86
2022/07/29 03:08:01;;;;;;;3.58;1.92;;;;;;;;;;6132194;23;21111;-87
2022/07/29 03:10:31;;;;;;;4.85;1.70;;;;;;;;;;6131359;23;20021;-86
2022/07/29 03:12:58;;;;;;;2.92;1.77;;;;;;;;;;6157601;23;20026;-86
2022/07/29 03:15:30;;;;;;;5.35;1.90;;;;;;;;;;6131803;23;20028;-86
2022/07/29 03:17:58;;;;;;;11.85;2.22;;;;;;;;;;6130860;23;20026;-86
2022/07/29 03:20:37;;;;;;;4.28;2.00;;;;;;;;;;6132478;23;20581;-86
2022/07/29 03:23:04;;;;;;;5.88;1.88;;;;;;;;;;6157365;23;20018;-86
2022/07/29 03:25:32;;;;;;;6.47;1.77;;;;;;;;;;6130596;23;20014;-86
2022/07/29 03:28:00;;;;;;;4.63;1.90;;;;;;;;;;6130730;23;20018;-86
2022/07/29 03:30:30;;;;;;;4.88;1.92;;;;;;;;;;6131053;23;20077;-86
2022/07/29 03:33:07;;;;;;;3.80;1.90;;;;;;;;;;6131931;23;20018;-86
2022/07/29 03:35:42;;;;;;;5.93;1.80;;;;;;;;;;6132018;23;20469;-86
2022/07/29 03:38:11;;;;;;;6.32;1.85;;;;;;;;;;6131172;23;20088;-86
2022/07/29 03:40:56;;;;;;;4.75;1.70;;;;;;;;;;6133702;23;20088;-86
2022/07/29 03:43:26;;;;;;;7.13;1.80;;;;;;;;;;6131192;23;20026;-86
2022/07/29 03:45:55;;;;;;;4.82;2.10;;;;;;;;;;6131434;23;20064;-86
2022/07/29 03:48:24;;;;;;;7.72;2.10;;;;;;;;;;6131381;23;20089;-86
2022/07/29 03:50:59;;;;;;;5.85;1.75;;;;;;;;;;6131881;23;20076;-86
2022/07/29 03:53:29;;;;;;;6.38;1.55;;;;;;;;;;6157131;23;20026;-86
2022/07/29 03:56:02;;;;;;;5.57;1.65;;;;;;;;;;6131526;23;20085;-86
2022/07/29 03:58:39;;;;;;;7.97;1.95;;;;;;;;;;6131879;23;20029;-86
2022/07/29 04:01:10;;;;;;;3.40;1.60;;;;;;;;;;6156990;23;20048;-86
2022/07/29 04:03:51;;;;;;;4.75;1.73;;;;;;;;;;6132984;23;20026;-85
2022/07/29 04:06:18;;;;;;;4.40;1.73;;;;;;;;;;6130631;23;20791;-86
2022/07/29 04:08:47;;;;;;;5.53;1.88;;;;;;;;;;6130174;23;20081;-86
2022/07/29 04:11:14;;;;;;;2.83;1.65;;;;;;;;;;6130720;23;20022;-86
2022/07/29 04:13:45;;;;;;;3.08;1.70;;;;;;;;;;6130854;23;20026;-86
2022/07/29 04:16:14;;;;;;;6.47;1.90;;;;;;;;;;6130198;23;20090;-86
2022/07/29 04:18:43;;;;;;;3.72;1.60;;;;;;;;;;6130784;23;20032;-86
2022/07/29 04:21:14;;;;;;;2.65;1.45;;;;;;;;;;6130711;23;20073;-86
2022/07/29 04:23:45;;;;;;;3.35;1.63;;;;;;;;;;6131353;23;20026;-86
2022/07/29 04:26:23;;;;;;;4.53;1.55;;;;;;;;;;6132490;23;20479;-86
2022/07/29 04:28:58;;;;;;;3.88;1.48;;;;;;;;;;6130471;23;20558;-86
2022/07/29 04:31:28;;;;;;;3.85;1.70;;;;;;;;;;6130908;23;20029;-86
2022/07/29 04:33:55;;;;;;;5.78;1.80;;;;;;;;;;6130693;23;20029;-86
2022/07/29 04:36:23;;;;;;;6.50;1.48;;;;;;;;;;6130758;23;20040;-86
2022/07/29 04:39:01;;;;;;;5.13;1.73;;;;;;;;;;6131386;23;20498;-86
2022/07/29 04:41:28;;;;;;;6.85;1.90;;;;;;;;;;6131352;23;20113;-86
2022/07/29 04:44:04;;;;;;;3.33;1.50;;;;;;;;;;6132589;23;20080;-86
2022/07/29 04:46:35;;;;;;;3.75;1.40;;;;;;;;;;6132440;23;20735;-86
2022/07/29 04:49:03;;;;;;;6.10;2.03;;;;;;;;;;6131774;23;20014;-86
2022/07/29 04:51:33;;;;;;;2.90;1.60;;;;;;;;;;6132118;23;20861;-86
2022/07/29 04:54:06;;;;;;;5.05;1.70;;;;;;;;;;6132426;23;20026;-86
2022/07/29 04:56:36;;;;;;;3.33;1.35;;;;;;;;;;6132079;23;20105;-86
2022/07/29 04:59:06;;;;;;;9.10;2.03;;;;;;;;;;6157798;23;20018;-86
2022/07/29 05:01:59;;;;;;;2.60;1.45;;;;;;;;;;6131873;23;20022;-86
2022/07/29 05:04:31;;;;;;;5.00;1.60;;;;;;;;;;6131854;23;20030;-86
2022/07/29 05:06:58;;;;;;;3.53;1.73;;;;;;;;;;6130881;23;20763;-86
2022/07/29 05:09:27;;;;;;;3.63;1.50;;;;;;;;;;6131595;23;20032;-85
2022/07/29 05:11:57;;;;;;;4.50;1.60;;;;;;;;;;6131577;23;20022;-86
2022/07/29 05:14:35;;;;;;;4.93;1.70;;;;;;;;;;6134014;23;20026;-86
2022/07/29 05:17:07;;;;;;;3.65;1.70;;;;;;;;;;6131971;23;20022;-86
2022/07/29 05:19:39;;;;;;;5.25;1.67;;;;;;;;;;6132529;23;20037;-86
2022/07/29 05:22:09;;;;;;;3.65;1.80;;;;;;;;;;6131448;23;20029;-86
2022/07/29 05:24:39;;;;;;;5.30;1.90;;;;;;;;;;6130541;23;20114;-86
2022/07/29 05:27:06;;;;;;;4.25;1.80;;;;;;;;;;6130546;23;20018;-86
2022/07/29 05:29:37;;;;;;;3.22;1.60;;;;;;;;;;6130436;23;20030;-86
2022/07/29 05:32:11;;;;;;;4.95;1.83;;;;;;;;;;6155835;23;20089;-86
2022/07/29 05:34:42;;;;;;;8.38;1.67;;;;;;;;;;6131210;23;20033;-86
2022/07/29 05:37:19;;;;;;;6.88;2.10;;;;;;;;;;6132528;23;20093;-86
2022/07/29 05:39:48;;;;;;;3.90;1.83;;;;;;;;;;6158332;23;20018;-86
2022/07/29 05:42:25;;;;;;;6.05;2.00;;;;;;;;;;6133878;23;20096;-86
2022/07/29 05:45:00;;;;;;;5.05;1.70;;;;;;;;;;6133775;23;20092;-86
2022/07/29 05:47:33;;;;;;;4.22;1.77;;;;;;;;;;6132467;23;20018;-86
2022/07/29 05:50:02;;;;;;;5.15;1.70;;;;;;;;;;6132619;23;20731;-86
2022/07/29 05:52:35;;;;;;;4.15;1.92;;;;;;;;;;6133264;23;20022;-86
2022/07/29 05:55:14;;;;;;;8.25;1.92;;;;;;;;;;6133728;23;20026;-86
2022/07/29 05:57:47;;;;;;;3.72;1.70;;;;;;;;;;6132394;23;20045;-86
2022/07/29 06:00:20;;;;;;;5.45;1.65;;;;;;;;;;6132640;23;20478;-86
2022/07/29 06:02:52;;;;;;;7.53;1.80;;;;;;;;;;6133025;23;20036;-86
2022/07/29 06:05:25;;;;;;;;;;;;;;;;;;6134458;23;20472;-86
2022/07/29 06:07:56;;;;;;;3.20;1.80;;;;;;;;;;6130640;23;42983;-86
2022/07/29 06:10:27;;;;;;;8.07;1.90;;;;;;;;;;6133142;23;20033;-86
2022/07/29 06:12:57;;;;;;;3.45;2.00;;;;;;;;;;6132360;23;20059;-86
2022/07/29 06:15:26;;;;;;;3.35;1.60;;;;;;;;;;6131761;23;20029;-85
2022/07/29 06:17:54;;;;;;;4.18;1.70;;;;;;;;;;6131770;23;20425;-86
2022/07/29 06:20:29;;;;;;;5.85;2.00;;;;;;;;;;6133485;23;20018;-86
2022/07/29 06:23:04;;;;;;;7.93;2.20;;;;;;;;;;6132673;23;20021;-86
2022/07/29 06:25:35;;;;;;;6.53;1.90;;;;;;;;;;6133127;23;20821;-85
2022/07/29 06:28:05;;;;;;;6.47;2.25;;;;;;;;;;6132723;23;20045;-86
2022/07/29 06:30:35;;;;;;;8.88;1.73;;;;;;;;;;6132285;23;20025;-85
2022/07/29 06:33:05;;;;;;;4.47;1.92;;;;;;;;;;6132996;23;20022;-89
2022/07/29 06:35:38;;;;;;;3.08;1.70;;;;;;;;;;6133069;23;20034;-86
2022/07/29 06:38:29;;;;;;;6.57;2.03;;;;;;;;;;6133447;23;20147;-85
2022/07/29 06:41:18;;;;;;;6.18;1.95;;;;;;;;;;6157964;23;20021;-86
2022/07/29 06:43:46;;;;;;;3.35;1.80;;;;;;;;;;6132253;23;20022;-86
2022/07/29 06:46:23;;;;;;;12.02;2.35;;;;;;;;;;6134797;23;20026;-86
2022/07/29 06:48:54;;;;;;;4.45;2.00;;;;;;;;;;6133187;23;20032;-86
2022/07/29 06:51:27;;;;;;;4.25;2.00;;;;;;;;;;6132496;23;20029;-86
2022/07/29 06:53:57;;;;;;;;;;;;;;;;;;6135639;23;20870;-86
2022/07/29 06:56:28;;;;;;;6.10;2.85;;;;;;;;;;6138933;23;45301;-86
2022/07/29 06:58:56;;;;;;;4.22;2.00;;;;;;;;;;6133784;23;20042;-85
2022/07/29 07:01:52;;;;;;;3.08;1.98;;;;;;;;;;6134010;23;20097;-86
2022/07/29 07:04:22;;;;;;;4.30;2.00;;;;;;;;;;6130466;23;20022;-86
2022/07/29 07:07:03;;;;;;;;;;;;;;;;;;6131854;23;20046;-86
2022/07/29 07:09:33;;;;;;;8.35;2.28;;;;;;;;;;6128022;23;46566;-85
2022/07/29 07:12:09;;;;;;;7.05;2.38;;;;;;;;;;6132021;23;20563;-86
2022/07/29 07:14:51;;;;;;;4.97;2.25;;;;;;;;;;6133030;23;20879;-85
2022/07/29 07:17:23;;;;;;;5.50;2.30;;;;;;;;;;6129450;23;20680;-85
2022/07/29 07:19:54;;;;;;;5.20;2.00;;;;;;;;;;6128646;23;20024;-85
2022/07/29 07:22:30;;;;;;;9.32;2.28;;;;;;;;;;6130318;23;20025;-86
2022/07/29 07:25:05;;;;;;;5.25;2.13;;;;;;;;;;6129981;23;20022;-86
2022/07/29 07:27:38;;;;;;;4.15;2.20;;;;;;;;;;6129559;23;20105;-85
2022/07/29 07:30:09;;;;;;;4.15;2.28;;;;;;;;;;6130469;23;20625;-85
2022/07/29 07:32:43;;;;;;;4.88;2.20;;;;;;;;;;6130874;23;20014;-85
2022/07/29 07:35:12;;;;;;;5.97;2.38;;;;;;;;;;6129068;23;20558;-85
2022/07/29 07:37:42;;;;;;;3.95;2.05;;;;;;;;;;6130558;23;20105;-84
2022/07/29 07:40:12;;;;;;;4.13;2.15;;;;;;;;;;6130391;23;20072;-85
2022/07/29 07:42:52;;;;;;;9.07;2.28;;;;;;;;;;6131871;23;20018;-85
2022/07/29 07:45:22;;;;;;;7.28;2.42;;;;;;;;;;6129348;23;20049;-85
2022/07/29 07:47:56;;;;;;;7.38;2.40;;;;;;;;;;6129073;23;20024;-85
2022/07/29 07:50:31;;;;;;;6.30;2.15;;;;;;;;;;6130678;23;20045;-86
2022/07/29 07:53:09;;;;;;;;;;;;;;;;;;;;;
2022/07/29 07:55:52;;;;;;;5.88;2.20;;;;;;;;;;6155928;23;20022;-85
2022/07/29 07:58:39;;;;;;;5.87;2.20;;;;;;;;;;6134037;23;20026;-85
2022/07/29 08:01:25;;;;;;;4.20;1.90;;;;;;;;;;6130079;23;20609;-86
2022/07/29 08:04:12;;;;;;;8.07;2.00;;;;;;;;;;6130525;23;20020;-87
2022/07/29 08:06:43;;;;;;;5.20;2.10;;;;;;;;;;6129695;23;20018;-86
2022/07/29 08:09:13;;;;;;;6.90;2.17;;;;;;;;;;6129534;23;20034;-85
2022/07/29 08:12:03;;;;;;;6.22;2.00;;;;;;;;;;6126186;23;20022;-86
2022/07/29 08:14:34;;;;;;;7.13;2.10;;;;;;;;;;6130279;23;20029;-85
2022/07/29 08:17:02;;;;;;;5.63;1.90;;;;;;;;;;6128962;23;20018;-86
2022/07/29 08:19:36;;;;;;;4.75;2.00;;;;;;;;;;6130283;23;20112;-85
2022/07/29 08:22:06;;;;;;;4.57;1.90;;;;;;;;;;6128593;23;20115;-86
2022/07/29 08:24:55;;;;;;;8.70;2.42;;;;;;;;;;6128854;23;20029;-86
2022/07/29 08:27:32;;;;;;;;;;;;;;;;;;6130620;23;20136;-86
2022/07/29 08:30:12;;;;;;;5.50;2.17;;;;;;;;;;6129018;23;45622;-86
2022/07/29 08:32:46;;;;;;;5.40;2.55;;;;;;;;;;6128857;23;20018;-86
2022/07/29 08:35:23;;;;;;;6.82;2.15;;;;;;;;;;6155754;23;20069;-85
2022/07/29 08:38:30;;;;;;;7.65;2.40;;;;;;;;;;6131575;23;20538;-86
2022/07/29 08:41:23;;;;;;;6.50;2.13;;;;;;;;;;6129125;23;20073;-88
2022/07/29 08:44:26;;;;;;;3.97;1.90;;;;;;;;;;6130235;23;20475;-89
2022/07/29 08:46:57;;;;;;;;;;;;;;;;;;6131623;23;20029;-86
2022/07/29 08:49:31;;;;;;;6.57;2.50;;;;;;;;;;6130706;23;43600;-86
2022/07/29 08:52:03;;;;;;;6.57;2.38;;;;;;;;;;6130644;23;20026;-87
2022/07/29 08:55:07;;;;;;;10.63;2.22;;;;;;;;;;6133575;23;20026;-88
2022/07/29 08:58:04;;;;;;;8.82;2.10;;;;;;;;;;6132862;23;20029;-87
2022/07/29 09:01:06;;;;;;;4.30;1.98;;;;;;;;;;6118686;23;20018;-87
2022/07/29 09:03:49;;;;;;;3.10;1.83;;;;;;;;;;6136634;23;20126;-87
2022/07/29 09:06:33;;;;;;;4.43;2.20;;;;;;;;;;6135030;23;20049;-88
2022/07/29 09:09:39;;;;;;;7.78;2.00;;;;;;;;;;6015897;23;20729;-87
2022/07/29 09:12:39;;;;;;;4.85;1.90;;;;;;;;;;6036154;23;20530;-88
2022/07/29 09:15:29;;;;;;;6.18;2.00;;;;;;;;;;6019473;23;20108;-87
2022/07/29 09:18:13;;;;;;;6.15;1.80;;;;;;;;;;6040267;23;20024;-87
2022/07/29 09:27:42;;;;;;;5.10;1.90;;;;;;;;;;6065432;23;20038;-87
2022/07/29 09:30:22;;;;;;;2.28;1.35;;;;;;;;;;6068358;23;20016;-87
2022/07/29 09:33:08;;;;;;;8.52;1.70;;;;;;;;;;6043747;23;20027;-88
2022/07/29 09:36:09;;;;;;;6.05;2.08;;;;;;;;;;6045370;23;20034;-87
2022/07/29 09:38:40;;;;;;;6.35;2.00;;;;;;;;;;6044918;23;20047;-87
2022/07/29 09:41:16;;;;;;;5.25;1.77;;;;;;;;;;6044038;23;20026;-87
2022/07/29 09:44:06;;;;;;;;;;;;;;;;;;;;;
2022/07/29 09:46:55;;;;;;;6.75;1.55;;;;;;;;;;6067714;23;20024;-86
2022/07/29 09:49:34;;;;;;;5.88;1.92;;;;;;;;;;6042722;23;20335;-87
2022/07/29 09:52:11;;;;;;;7.38;1.70;;;;;;;;;;6041125;23;20473;-86
2022/07/29 09:54:45;;;;;;;4.93;1.52;;;;;;;;;;6042439;23;20022;-87
2022/07/29 09:57:45;;;;;;;9.88;1.70;;;;;;;;;;6041761;23;20023;-87
2022/07/29 10:00:22;;;;;;;4.72;1.42;;;;;;;;;;6066082;23;20031;-86
2022/07/29 10:03:04;;;;;;;8.48;1.60;;;;;;;;;;6043437;23;20023;-86
2022/07/29 10:05:41;;;;;;;4.03;1.38;;;;;;;;;;6124621;23;20575;-85
2022/07/29 10:08:25;;;;;;;3.88;1.55;;;;;;;;;;6131119;23;20025;-85
2022/07/29 10:11:17;;;;;;;8.85;1.73;;;;;;;;;;6130728;23;20685;-85
2022/07/29 10:13:45;;;;;;;7.63;1.70;;;;;;;;;;6157121;23;20804;-85
2022/07/29 10:16:16;;;;;;;7.90;2.00;;;;;;;;;;6129792;23;20018;-85
2022/07/29 10:18:48;;;;;;;7.53;1.67;;;;;;;;;;6130869;23;20081;-86
2022/07/29 10:21:20;;;;;;;8.93;1.70;;;;;;;;;;6131448;23;20476;-85
2022/07/29 10:24:02;;;;;;;6.22;2.75;;;;;;;;;;6156212;23;20108;-85
2022/07/29 10:26:40;;;;;;;;;;;;;;;;;;;;;
2022/07/29 10:29:10;;;;;;;3.45;1.60;;;;;;;;;;6158222;23;20892;-86
2022/07/29 10:31:44;;;;;;;12.50;1.73;;;;;;;;;;6131282;23;20085;-86
2022/07/29 10:34:21;;;;;;;7.88;2.25;;;;;;;;;;6132470;23;20053;-87
2022/07/29 10:37:21;;;;;;;6.18;1.50;;;;;;;;;;6131907;23;20069;-86
2022/07/29 10:41:25;;;;;;;3.45;1.55;;;;;;;;;;6097750;23;20089;-85
2022/07/29 10:43:10;;;;;;;6.32;1.88;;;;;;;;;;6156990;23;20487;-86
2022/07/29 10:45:49;;;;;;;6.85;2.05;;;;;;;;;;6133126;23;20029;-86
2022/07/29 10:48:46;;;;;;;8.05;1.95;;;;;;;;;;6133268;23;20044;-86
2022/07/29 10:51:17;;;;;;;6.82;1.90;;;;;;;;;;6127666;23;20022;-85
2022/07/29 10:57:25;;;;;;;6.50;1.73;;;;;;;;;;6051852;23;20022;-86
2022/07/29 11:00:16;;;;;;;10.07;2.78;;;;;;;;;;6136375;23;20381;-86
2022/07/29 11:02:55;;;;;;;5.93;2.08;;;;;;;;;;6133121;23;20022;-86
2022/07/29 11:05:43;;;;;;;10.52;2.90;;;;;;;;;;6131208;23;20037;-86
2022/07/29 11:08:25;;;;;;;8.27;2.20;;;;;;;;;;6132237;23;20049;-85
2022/07/29 11:11:24;;;;;;;4.70;2.10;;;;;;;;;;6129696;23;20022;-86
2022/07/29 11:14:05;;;;;;;4.13;1.95;;;;;;;;;;6132397;23;20073;-86
2022/07/29 11:16:58;;;;;;;7.55;2.42;;;;;;;;;;6132590;23;20105;-86
2022/07/29 11:19:34;;;;;;;5.15;2.00;;;;;;;;;;6129127;23;20077;-86
2022/07/29 11:22:08;;;;;;;5.97;2.33;;;;;;;;;;6130675;23;20050;-86
2022/07/29 11:24:37;;;;;;;7.20;2.00;;;;;;;;;;6130378;23;20022;-86
2022/07/29 11:27:22;;;;;;;9.73;2.17;;;;;;;;;;6132048;23;20451;-86
2022/07/29 11:30:01;;;;;;;4.78;2.20;;;;;;;;;;6155347;23;20022;-86
2022/07/29 11:32:37;;;;;;;13.13;2.47;;;;;;;;;;6130333;23;20461;-85
2022/07/29 11:35:23;;;;;;;9.02;2.00;;;;;;;;;;6131994;23;20025;-85
2022/07/29 11:38:24;;;;;;;7.30;2.50;;;;;;;;;;6134848;23;20061;-86
2022/07/29 11:41:13;;;;;;;5.05;2.03;;;;;;;;;;6132412;23;20092;-86
2022/07/29 11:43:50;;;;;;;6.88;2.05;;;;;;;;;;6158130;23;20066;-86
2022/07/29 11:46:41;;;;;;;7.30;1.98;;;;;;;;;;6132457;23;20081;-86
2022/07/29 11:49:20;;;;;;;4.57;1.75;;;;;;;;;;6132130;23;20037;-86
2022/07/29 11:52:13;;;;;;;;;;;;;;;;;;;;;
2022/07/29 11:54:45;;;;;;;5.68;2.40;;;;;;;;;;6157390;23;20130;-86
2022/07/29 11:57:24;;;;;;;;;;;;;;;;;;6134712;23;20447;-86
2022/07/29 12:00:06;;;;;;;11.20;2.10;;;;;;;;;;6132590;23;45023;-86
2022/07/29 12:02:41;;;;;;;6.28;2.20;;;;;;;;;;6132770;23;20018;-86
2022/07/29 12:05:12;;;;;;;6.45;2.70;;;;;;;;;;6131775;23;20018;-86
2022/07/29 12:07:40;;;;;;;8.68;2.45;;;;;;;;;;6132140;23;20025;-86
2022/07/29 12:10:32;;;;;;;8.20;1.80;;;;;;;;;;6135598;23;20637;-86
2022/07/29 12:13:07;;;;;;;7.15;2.25;;;;;;;;;;6132317;23;20085;-86
2022/07/29 12:15:43;;;;;;;10.80;2.53;;;;;;;;;;6131351;23;20026;-86
2022/07/29 12:18:19;;;;;;;9.63;2.53;;;;;;;;;;6133037;23;20601;-86
2022/07/29 12:20:57;;;;;;;7.85;2.75;;;;;;;;;;6157524;23;20089;-86
2022/07/29 12:23:30;;;;;;;6.20;2.17;;;;;;;;;;6132747;23;20085;-86
2022/07/29 12:26:04;;;;;;;7.65;1.88;;;;;;;;;;6132513;23;20066;-86
2022/07/29 12:28:51;;;;;;;5.10;1.80;;;;;;;;;;6135666;23;20018;-85
2022/07/29 12:31:22;;;;;;;9.35;2.13;;;;;;;;;;6132389;23;20025;-86
2022/07/29 12:34:16;;;;;;;5.97;2.05;;;;;;;;;;6135697;23;20433;-86
2022/07/29 12:36:49;;;;;;;4.38;2.00;;;;;;;;;;6132576;23;20022;-86
2022/07/29 12:39:27;;;;;;;9.82;1.83;;;;;;;;;;6132550;23;20029;-86
2022/07/29 12:42:18;;;;;;;4.75;1.60;;;;;;;;;;6132220;23;20472;-86
2022/07/29 12:44:54;;;;;;;6.95;2.17;;;;;;;;;;6132255;23;20486;-86
2022/07/29 12:47:36;;;;;;;8.27;2.23;;;;;;;;;;6134011;23;20483;-85
2022/07/29 12:50:22;;;;;;;6.30;2.00;;;;;;;;;;6132301;23;20045;-85
2022/07/29 12:52:55;;;;;;;5.93;2.17;;;;;;;;;;6131869;23;20022;-85
2022/07/29 12:55:52;;;;;;;3.80;1.80;;;;;;;;;;6131301;23;20022;-85
2022/07/29 12:58:57;;;;;;;9.85;2.53;;;;;;;;;;6132202;23;20053;-85
2022/07/29 13:01:27;;;;;;;7.22;1.85;;;;;;;;;;6108078;23;20813;-86
2022/07/29 13:25:41;;;;;;;5.93;2.20;;;;;;;;;;5954882;23;20020;-84
2022/07/29 13:28:07;;;;;;;13.95;2.45;;;;;;;;;;5934412;23;20087;-85
2022/07/29 13:33:58;;;;;;;7.22;2.47;;;;;;;;;;5027480;27;1233880;-76
2022/07/29 13:36:26;;;;;;;5.13;2.50;;;;;;;;;;5060784;28;20056;-76
2022/07/29 13:38:53;;;;;;;6.80;2.17;;;;;;;;;;5059434;28;20060;-76
2022/07/29 13:41:21;;;;;;;8.88;2.20;;;;;;;;;;5062106;28;20127;-75
2022/07/29 13:43:48;;;;;;;7.70;2.70;;;;;;;;;;5064633;28;20124;-76
2022/07/29 13:46:16;;;;;;;7.97;2.28;;;;;;;;;;5058946;28;20107;-76
2022/07/29 13:48:43;;;;;;;7.00;2.20;;;;;;;;;;5060810;28;20045;-76
2022/07/29 13:51:10;;;;;;;9.23;2.80;;;;;;;;;;5056950;28;20049;-74
2022/07/29 13:53:38;;;;;;;4.85;2.15;;;;;;;;;;5061836;28;20058;-76
2022/07/29 13:56:05;;;;;;;8.40;2.28;;;;;;;;;;5051977;28;20054;-76
2022/07/29 13:58:34;;;;;;;9.88;2.20;;;;;;;;;;5060811;28;20046;-76
2022/07/29 14:01:01;;;;;;;9.57;2.30;;;;;;;;;;5048973;28;20050;-75
2022/07/29 14:03:28;;;;;;;7.43;2.03;;;;;;;;;;5039025;28;20054;-77
2022/07/29 14:05:56;;;;;;;8.85;1.98;;;;;;;;;;5039635;28;20077;-77
2022/07/29 14:08:23;;;;;;;8.75;2.40;;;;;;;;;;5041145;28;20050;-76
2022/07/29 14:10:51;;;;;;;6.10;1.85;;;;;;;;;;5035842;28;20095;-75
2022/07/29 14:13:18;;;;;;;6.85;2.17;;;;;;;;;;5038447;28;20058;-75
2022/07/29 14:15:51;;;;;;;4.40;2.20;;;;;;;;;;5043079;28;20046;-76
2022/07/29 14:18:19;;;;;;;3.67;2.08;;;;;;;;;;5045055;28;20045;-77
2022/07/29 14:20:46;;;;;;;6.70;2.08;;;;;;;;;;5034772;28;20053;-76
2022/07/29 14:23:13;;;;;;;4.85;2.20;;;;;;;;;;5037720;28;20137;-77
2022/07/29 14:25:42;;;;;;;10.20;2.67;;;;;;;;;;5039928;28;20103;-76
2022/07/29 14:28:13;;;;;;;8.07;2.78;;;;;;;;;;5043191;28;20060;-76
2022/07/29 14:30:40;;;;;;;4.35;2.30;;;;;;;;;;5037362;28;20120;-76
2022/07/29 14:33:11;;;;;;;12.85;2.72;;;;;;;;;;5050812;28;20057;-77
2022/07/29 14:35:40;;;;;;;10.38;2.42;;;;;;;;;;5061085;28;20053;-77
2022/07/29 14:38:08;;;;;;;5.60;2.33;;;;;;;;;;5056024;28;20553;-77
2022/07/29 14:40:36;;;;;;;9.73;2.30;;;;;;;;;;5065447;28;20050;-77
2022/07/29 14:43:03;;;;;;;8.98;2.60;;;;;;;;;;5060665;28;20049;-77
2022/07/29 14:45:31;;;;;;;10.10;2.95;;;;;;;;;;5047244;28;20124;-77
2022/07/29 14:47:59;;;;;;;4.90;2.30;;;;;;;;;;5044953;28;20049;-77
2022/07/29 14:50:27;;;;;;;10.68;3.22;;;;;;;;;;5049379;28;20112;-77
2022/07/29 14:52:58;;;;;;;18.35;2.33;;;;;;;;;;5046949;28;20046;-77
2022/07/29 14:55:25;;;;;;;8.00;2.40;;;;;;;;;;5041981;28;20049;-75
2022/07/29 14:57:53;;;;;;;8.20;2.35;;;;;;;;;;5052377;28;20056;-76
2022/07/29 15:00:33;;;;;;;10.20;2.10;;;;;;;;;;5049802;28;20054;-77
2022/07/29 15:03:01;;;;;;;7.20;2.50;;;;;;;;;;5048501;28;20136;-76
2022/07/29 15:05:30;;;;;;;8.18;2.33;;;;;;;;;;5045066;28;20558;-77
2022/07/29 15:07:57;;;;;;;6.28;1.90;;;;;;;;;;5046164;28;20057;-77
2022/07/29 15:10:26;;;;;;;8.00;1.95;;;;;;;;;;5048535;28;20785;-77
2022/07/29 15:12:54;;;;;;;5.95;1.90;;;;;;;;;;5046507;28;20911;-77
2022/07/29 15:15:21;;;;;;;9.02;2.75;;;;;;;;;;5045528;28;20056;-76
2022/07/29 15:17:49;;;;;;;9.60;2.55;;;;;;;;;;5046731;28;20045;-76
2022/07/29 15:20:16;;;;;;;9.20;2.20;;;;;;;;;;5042666;28;21593;-76
2022/07/29 15:22:43;;;;;;;12.15;2.30;;;;;;;;;;5041892;28;20054;-75
2022/07/29 15:25:11;;;;;;;5.93;1.92;;;;;;;;;;5046938;28;20133;-75
2022/07/29 15:27:41;;;;;;;11.02;2.58;;;;;;;;;;5044965;28;20049;-76
2022/07/29 15:30:16;;;;;;;4.30;1.77;;;;;;;;;;5045678;28;20076;-75
2022/07/29 15:33:01;;;;;;;4.38;1.83;;;;;;;;;;5047253;28;20057;-75
2022/07/29 15:35:29;;;;;;;9.70;2.30;;;;;;;;;;5052757;28;20056;-76
2022/07/29 15:37:56;;;;;;;6.13;1.90;;;;;;;;;;5046940;28;20053;-76
2022/07/29 15:40:23;;;;;;;9.23;1.92;;;;;;;;;;5045322;28;20052;-75
2022/07/29 15:42:51;;;;;;;9.93;2.00;;;;;;;;;;5043459;28;20053;-76
2022/07/29 15:45:18;;;;;;;7.70;1.88;;;;;;;;;;5048052;28;20116;-76
2022/07/29 15:47:45;;;;;;;4.07;1.60;;;;;;;;;;5046867;28;20562;-77
2022/07/29 15:50:15;;;;;;;3.55;1.58;;;;;;;;;;5045220;28;20046;-76
2022/07/29 15:52:43;;;;;;;9.25;4.10;;;;;;;;;;5046245;28;20053;-75
2022/07/29 15:55:10;;;;;;;4.72;2.40;;;;;;;;;;5048448;28;20048;-75
2022/07/29 15:57:39;;;;;;;5.93;1.88;;;;;;;;;;5046113;28;20438;-76
2022/07/29 16:00:07;;;;;;;5.18;1.45;;;;;;;;;;5045087;28;20176;-76
2022/07/29 16:02:35;;;;;;;6.47;1.90;;;;;;;;;;5046224;28;20046;-77
2022/07/29 16:05:02;;;;;;;4.60;1.65;;;;;;;;;;5049168;28;20052;-75
2022/07/29 16:07:35;;;;;;;;;;;;;;;;;;5055404;28;20060;-75
2022/07/29 16:10:02;;;;;;;4.53;1.70;;;;;;;;;;5053705;28;44444;-76